createdAt,value
2023-01-17T00:00:08.947Z,79.50
2023-01-17T00:02:45.756Z,79.81
2023-01-17T00:05:32.594Z,80.08
2023-01-17T00:08:36.343Z,78.63
2023-01-17T00:11:09.062Z,78.80
2023-01-17T00:13:40.870Z,77.84
2023-01-17T00:16:09.324Z,77.23
2023-01-17T00:18:37.489Z,77.10
2023-01-17T00:21:25.028Z,77.51
2023-01-17T00:24:10.492Z,76.81
2023-01-17T00:26:58.417Z,77.39
2023-01-17T00:29:26.345Z,75.97
2023-01-17T00:31:56.104Z,75.46
2023-01-17T00:34:24.354Z,75.07
2023-01-17T00:36:51.323Z,74.18
2023-01-17T00:39:19.401Z,73.18
2023-01-17T00:41:49.183Z,72.99
2023-01-17T00:44:37.239Z,72.83
2023-01-17T00:47:23.207Z,71.67
2023-01-17T00:50:10.928Z,72.75
2023-01-17T00:52:56.895Z,73.51
2023-01-17T00:55:43.922Z,73.02
2023-01-17T00:58:30.885Z,73.13
2023-01-17T01:01:17.204Z,73.44
2023-01-17T01:04:04.236Z,72.92
2023-01-17T01:06:49.826Z,72.32
2023-01-17T01:10:10.817Z,71.51
2023-01-17T01:13:03.185Z,71.19
2023-01-17T01:15:52.542Z,71.48
2023-01-17T01:18:39.923Z,71.92
2023-01-17T01:21:27.130Z,71.21
2023-01-17T01:24:14.755Z,71.05
2023-01-17T01:27:02.166Z,71.16
2023-01-17T01:29:57.390Z,70.80
2023-01-17T01:32:44.591Z,70.23
2023-01-17T01:35:16.522Z,70.14
2023-01-17T01:37:48.462Z,70.60
2023-01-17T01:40:19.984Z,70.12
2023-01-17T01:42:53.769Z,70.63
2023-01-17T01:45:24.010Z,69.79
2023-01-17T01:48:05.226Z,70.48
2023-01-17T01:50:38.584Z,69.82
2023-01-17T01:53:12.625Z,70.01
2023-01-17T01:55:45.592Z,69.80
2023-01-17T01:58:20.709Z,69.69
2023-01-17T02:00:49.177Z,70.88
2023-01-17T02:03:27.115Z,69.64
2023-01-17T02:05:59.062Z,69.83
2023-01-17T02:08:28.792Z,69.27
2023-01-17T02:10:57.891Z,69.68
2023-01-17T02:13:26.100Z,69.64
2023-01-17T02:16:03.329Z,69.97
2023-01-17T02:18:47.898Z,68.77
2023-01-17T02:21:28.831Z,69.60
2023-01-17T02:24:44.274Z,68.98
2023-01-17T02:27:25.269Z,69.92
2023-01-17T02:30:33.295Z,69.38
2023-01-17T02:33:18.196Z,69.28
2023-01-17T02:35:58.645Z,69.12
2023-01-17T02:38:36.970Z,69.40
2023-01-17T02:41:08.030Z,69.62
2023-01-17T02:43:39.968Z,69.64
2023-01-17T02:46:14.095Z,69.40
2023-01-17T02:48:49.116Z,68.65
2023-01-17T02:51:41.913Z,69.15
2023-01-17T02:54:38.327Z,68.55
2023-01-17T02:57:25.227Z,68.52
2023-01-17T03:00:01.489Z,68.98
2023-01-17T03:02:44.821Z,68.92
2023-01-17T03:05:23.183Z,69.38
2023-01-17T03:07:56.560Z,69.32
2023-01-17T03:10:33.104Z,69.41
2023-01-17T03:13:03.921Z,69.00
2023-01-17T03:15:33.796Z,69.08
2023-01-17T03:18:07.001Z,68.79
2023-01-17T03:20:37.317Z,68.70
2023-01-17T03:23:07.247Z,68.29
2023-01-17T03:25:35.562Z,68.48
2023-01-17T03:28:04.352Z,67.60
2023-01-17T03:30:33.072Z,68.43
2023-01-17T03:33:03.864Z,67.67
2023-01-17T03:35:37.471Z,67.58
2023-01-17T03:38:09.932Z,68.43
2023-01-17T03:40:39.403Z,67.89
2023-01-17T03:43:07.980Z,68.88
2023-01-17T03:45:36.686Z,69.29
2023-01-17T03:48:07.571Z,68.46
2023-01-17T03:50:44.690Z,68.79
2023-01-17T03:53:15.355Z,69.38
2023-01-17T03:55:48.265Z,68.86
2023-01-17T03:58:17.763Z,69.73
2023-01-17T04:00:46.205Z,69.15
2023-01-17T04:03:18.438Z,70.23
2023-01-17T04:05:50.092Z,69.50
2023-01-17T04:08:21.474Z,69.75
2023-01-17T04:10:52.352Z,70.09
2023-01-17T04:13:23.902Z,69.92
2023-01-17T04:15:52.716Z,70.02
2023-01-17T04:18:24.761Z,70.01
2023-01-17T04:20:56.914Z,70.04
2023-01-17T04:23:26.433Z,69.86
2023-01-17T04:25:55.178Z,70.12
2023-01-17T04:28:26.156Z,70.05
2023-01-17T04:30:55.029Z,70.16
2023-01-17T04:33:23.827Z,70.80
2023-01-17T04:35:58.282Z,71.08
2023-01-17T04:38:30.257Z,71.57
2023-01-17T04:41:14.779Z,71.62
2023-01-17T04:43:45.425Z,72.25
2023-01-17T04:46:14.106Z,71.88
2023-01-17T04:48:43.421Z,72.29
2023-01-17T04:51:15.474Z,72.02
2023-01-17T04:53:44.700Z,72.25
2023-01-17T04:56:16.091Z,72.47
2023-01-17T04:58:45.814Z,72.78
2023-01-17T05:01:15.981Z,72.87
2023-01-17T05:03:47.045Z,73.69
2023-01-17T05:06:24.809Z,74.07
2023-01-17T05:08:54.075Z,74.16
2023-01-17T05:11:23.519Z,75.08
2023-01-17T05:13:52.985Z,75.24
2023-01-17T05:16:21.168Z,75.19
2023-01-17T05:18:53.090Z,75.10
2023-01-17T05:21:27.123Z,74.94
2023-01-17T05:23:57.087Z,75.18
2023-01-17T05:26:30.348Z,75.11
2023-01-17T05:29:04.675Z,74.64
2023-01-17T05:31:41.131Z,75.19
2023-01-17T05:34:10.015Z,75.06
2023-01-17T05:36:39.939Z,75.13
2023-01-17T05:39:33.059Z,75.70
2023-01-17T05:42:10.018Z,75.30
2023-01-17T05:44:45.884Z,75.32
2023-01-17T05:47:15.065Z,75.27
2023-01-17T05:49:46.004Z,75.56
2023-01-17T05:52:16.177Z,75.85
2023-01-17T05:54:51.170Z,76.18
2023-01-17T05:57:19.069Z,75.88
2023-01-17T05:59:51.033Z,76.00
2023-01-17T06:02:21.927Z,76.13
2023-01-17T06:04:51.923Z,76.47
2023-01-17T06:07:22.851Z,76.24
2023-01-17T06:09:56.235Z,76.61
2023-01-17T06:12:27.426Z,76.31
2023-01-17T06:14:56.739Z,76.35
2023-01-17T06:17:30.923Z,76.35
2023-01-17T06:20:02.475Z,76.01
2023-01-17T06:22:32.837Z,76.54
2023-01-17T06:25:02.502Z,76.67
2023-01-17T06:27:33.612Z,76.63
2023-01-17T06:30:04.343Z,76.37
2023-01-17T06:32:36.102Z,76.41
2023-01-17T06:35:06.110Z,76.89
2023-01-17T06:37:37.055Z,76.27
2023-01-17T06:40:15.337Z,76.42
2023-01-17T06:42:43.735Z,77.07
2023-01-17T06:48:10.623Z,76.50
2023-01-17T06:50:45.215Z,76.56
2023-01-17T06:53:15.983Z,76.58
2023-01-17T06:55:44.089Z,76.49
2023-01-17T06:58:12.836Z,76.76
2023-01-17T07:00:43.636Z,77.52
2023-01-17T07:03:20.104Z,77.15
2023-01-17T07:05:48.682Z,77.22
2023-01-17T07:08:20.564Z,77.23
2023-01-17T07:10:50.405Z,77.97
2023-01-17T07:13:19.859Z,77.43
2023-01-17T07:15:50.755Z,77.97
2023-01-17T07:18:25.641Z,78.36
2023-01-17T07:20:56.311Z,78.84
2023-01-17T07:23:34.485Z,79.19
2023-01-17T07:26:06.101Z,79.10
2023-01-17T07:28:40.527Z,79.31
2023-01-17T07:31:14.220Z,79.17
2023-01-17T07:36:26.694Z,79.61
2023-01-17T07:39:00.229Z,79.21
2023-01-17T07:41:34.171Z,79.15
2023-01-17T07:44:07.076Z,79.14
2023-01-17T07:46:38.455Z,79.02
2023-01-17T07:49:08.376Z,79.12
2023-01-17T07:51:39.635Z,79.62
2023-01-17T07:54:12.797Z,79.67
2023-01-17T07:56:47.129Z,79.13
2023-01-17T07:59:17.633Z,79.42
2023-01-17T08:01:51.738Z,79.33
2023-01-17T08:04:23.480Z,79.31
2023-01-17T08:06:52.257Z,79.79
2023-01-17T08:09:27.170Z,79.35
2023-01-17T08:12:02.279Z,79.01
2023-01-17T08:14:34.298Z,79.09
2023-01-17T08:17:11.410Z,78.93
2023-01-17T08:19:39.968Z,78.86
2023-01-17T08:22:17.449Z,78.79
2023-01-17T08:27:46.951Z,78.06
2023-01-17T08:30:16.021Z,77.28
2023-01-17T08:33:11.756Z,76.82
2023-01-17T08:36:00.121Z,76.36
2023-01-17T08:38:46.320Z,76.83
2023-01-17T08:41:17.104Z,77.31
2023-01-17T08:43:48.856Z,76.55
2023-01-17T08:46:17.547Z,76.46
2023-01-17T08:48:52.396Z,76.13
2023-01-17T08:51:24.950Z,75.23
2023-01-17T08:53:55.613Z,75.49
2023-01-17T08:56:29.030Z,74.64
2023-01-17T08:59:00.722Z,75.19
2023-01-17T09:01:33.438Z,75.56
2023-01-17T09:09:54.435Z,73.89
2023-01-17T09:12:23.910Z,73.92
2023-01-17T09:14:53.549Z,74.14
2023-01-17T09:17:23.737Z,73.31
2023-01-17T09:19:53.293Z,73.38
2023-01-17T09:22:24.024Z,73.52
2023-01-17T09:25:17.214Z,72.72
2023-01-17T09:27:51.569Z,72.13
2023-01-17T09:30:26.727Z,72.48
2023-01-17T09:32:58.302Z,71.40
2023-01-17T09:35:32.448Z,73.03
2023-01-17T09:41:23.081Z,70.68
2023-01-17T09:46:50.307Z,70.55
2023-01-17T09:49:34.857Z,70.15
2023-01-17T09:52:06.176Z,70.17
2023-01-17T09:54:38.196Z,69.65
2023-01-17T10:00:53.804Z,68.42
2023-01-17T10:04:00.039Z,68.53
2023-01-17T10:06:47.226Z,67.51
2023-01-17T10:09:34.108Z,67.33
2023-01-17T10:12:20.440Z,65.50
2023-01-17T10:15:19.237Z,65.02
2023-01-17T10:17:59.250Z,63.83
2023-01-17T10:21:14.275Z,64.13
2023-01-17T10:24:18.871Z,60.60
2023-01-17T10:27:36.563Z,58.26
2023-01-17T10:30:15.113Z,57.39
2023-01-17T10:32:50.600Z,56.11
2023-01-17T10:35:25.719Z,54.52
2023-01-17T10:37:57.427Z,55.23
2023-01-17T10:40:37.313Z,56.64
2023-01-17T10:43:43.127Z,56.22
2023-01-17T10:46:19.007Z,60.35
2023-01-17T10:48:53.921Z,61.19
2023-01-17T10:51:54.963Z,59.88
2023-01-17T10:54:38.976Z,58.73
2023-01-17T10:57:15.876Z,58.75
2023-01-17T10:59:45.880Z,59.45
2023-01-17T11:02:44.123Z,59.10
2023-01-17T11:05:34.925Z,58.35
2023-01-17T11:08:22.038Z,58.21
2023-01-17T11:10:54.429Z,56.28
2023-01-17T11:13:30.621Z,56.32
2023-01-17T11:16:04.462Z,56.50
2023-01-17T11:18:43.368Z,56.25
2023-01-17T11:21:20.015Z,56.68
2023-01-17T11:23:50.864Z,57.76
2023-01-17T11:26:27.883Z,58.86
2023-01-17T11:29:15.608Z,61.01
2023-01-17T11:31:44.664Z,60.41
2023-01-17T11:34:19.256Z,60.95
2023-01-17T11:36:48.826Z,60.09
2023-01-17T11:39:37.920Z,60.67
2023-01-17T11:42:24.673Z,60.25
2023-01-17T11:44:55.053Z,59.51
2023-01-17T11:47:25.513Z,59.24
2023-01-17T11:50:03.257Z,58.03
2023-01-17T11:52:39.318Z,57.11
2023-01-17T11:55:08.655Z,55.99
2023-01-17T11:57:42.683Z,55.10
2023-01-17T12:00:19.437Z,54.42
2023-01-17T12:03:22.829Z,52.32
2023-01-17T12:06:11.749Z,51.35
2023-01-17T12:08:57.554Z,53.67
2023-01-17T12:11:37.359Z,52.90
2023-01-17T12:14:15.833Z,52.10
2023-01-17T12:17:06.577Z,52.21
2023-01-17T12:19:54.926Z,52.77
2023-01-17T12:22:37.615Z,53.29
2023-01-17T12:25:25.060Z,53.15
2023-01-17T12:28:11.499Z,54.31
2023-01-17T12:30:50.240Z,53.93
2023-01-17T12:33:36.960Z,53.92
2023-01-17T12:36:17.782Z,54.38
2023-01-17T12:38:50.094Z,53.74
2023-01-17T12:41:28.867Z,51.73
2023-01-17T12:44:03.772Z,51.28
2023-01-17T12:46:38.593Z,51.30
2023-01-17T12:49:24.159Z,51.63
2023-01-17T12:52:36.159Z,49.67
2023-01-17T12:55:15.337Z,48.42
2023-01-17T12:57:47.600Z,48.77
2023-01-17T13:00:24.094Z,48.86
2023-01-17T13:03:02.551Z,50.02
2023-01-17T13:05:38.229Z,50.18
2023-01-17T13:08:19.919Z,51.68
2023-01-17T13:10:58.546Z,51.60
2023-01-17T13:13:30.484Z,51.77
2023-01-17T13:16:10.927Z,52.24
2023-01-17T13:18:46.625Z,51.63
2023-01-17T13:21:32.024Z,50.75
2023-01-17T13:24:28.669Z,52.37
2023-01-17T13:30:52.133Z,52.76
2023-01-17T13:33:55.533Z,52.04
2023-01-17T13:36:50.871Z,51.08
2023-01-17T13:39:48.379Z,51.22
2023-01-17T13:42:27.270Z,50.77
2023-01-17T13:44:58.865Z,51.94
2023-01-17T13:47:45.748Z,51.62
2023-01-17T13:50:48.215Z,52.07
2023-01-17T13:53:55.788Z,51.68
2023-01-17T13:57:00.404Z,54.26
2023-01-17T13:59:32.231Z,53.45
2023-01-17T14:02:02.992Z,53.62
2023-01-17T14:05:11.977Z,54.01
2023-01-17T14:08:01.734Z,53.96
2023-01-17T14:10:39.684Z,54.32
2023-01-17T14:13:31.735Z,54.97
2023-01-17T14:16:01.682Z,55.24
2023-01-17T14:18:35.015Z,54.88
2023-01-17T14:21:14.794Z,55.29
2023-01-17T14:24:03.821Z,53.67
2023-01-17T14:26:50.205Z,54.12
2023-01-17T14:29:48.105Z,54.36
2023-01-17T14:32:18.920Z,53.83
2023-01-17T14:34:48.964Z,53.50
2023-01-17T14:37:28.074Z,55.78
2023-01-17T14:39:57.872Z,55.09
2023-01-17T14:42:32.997Z,55.33
2023-01-17T14:45:06.102Z,56.12
2023-01-17T14:47:39.543Z,55.44
2023-01-17T14:50:20.700Z,56.16
2023-01-17T14:53:15.837Z,55.92
2023-01-17T14:55:52.088Z,56.48
2023-01-17T14:58:24.552Z,57.27
2023-01-17T15:01:03.346Z,56.53
2023-01-17T15:03:36.645Z,56.33
2023-01-17T15:06:14.759Z,56.95
2023-01-17T15:08:45.402Z,56.91
2023-01-17T15:11:21.501Z,56.46
2023-01-17T15:13:57.615Z,57.38
2023-01-17T15:16:30.949Z,57.75
2023-01-17T15:19:00.639Z,58.35
2023-01-17T15:21:32.989Z,58.94
2023-01-17T15:24:09.609Z,58.83
2023-01-17T15:26:46.574Z,60.10
2023-01-17T15:29:26.018Z,60.52
2023-01-17T15:31:58.354Z,60.49
2023-01-17T15:34:29.345Z,60.34
2023-01-17T15:37:02.569Z,60.97
2023-01-17T15:39:35.938Z,62.67
2023-01-17T15:42:07.501Z,62.84
2023-01-17T15:44:49.444Z,63.75
2023-01-17T15:47:34.042Z,63.03
2023-01-17T15:50:04.500Z,63.83
2023-01-17T15:52:32.927Z,65.16
2023-01-17T15:55:27.204Z,64.96
2023-01-17T15:57:57.206Z,65.86
2023-01-17T16:00:32.610Z,65.75
2023-01-17T16:03:01.435Z,66.19
2023-01-17T16:05:43.906Z,66.85
2023-01-17T16:08:48.926Z,66.94
2023-01-17T16:11:19.147Z,67.22
2023-01-17T16:13:49.460Z,66.94
2023-01-17T16:16:26.593Z,66.04
2023-01-17T16:19:01.722Z,64.80
2023-01-17T16:21:32.324Z,64.80
2023-01-17T16:24:05.566Z,64.17
2023-01-17T16:26:40.122Z,65.42
2023-01-17T16:29:08.745Z,66.95
2023-01-17T16:31:37.853Z,67.08
2023-01-17T16:34:19.758Z,68.13
2023-01-17T16:36:50.687Z,69.23
2023-01-17T16:39:22.157Z,68.96
2023-01-17T16:42:02.406Z,68.51
2023-01-17T16:44:33.598Z,69.71
2023-01-17T16:47:03.609Z,68.88
2023-01-17T16:49:33.782Z,67.85
2023-01-17T16:52:06.202Z,67.93
2023-01-17T16:54:34.709Z,67.62
2023-01-17T16:57:06.641Z,68.83
2023-01-17T16:59:50.002Z,67.36
2023-01-17T17:02:21.088Z,68.76
2023-01-17T17:04:50.135Z,69.48
2023-01-17T17:07:19.572Z,68.16
2023-01-17T17:09:48.175Z,69.60
2023-01-17T17:12:19.433Z,70.26
2023-01-17T17:14:48.100Z,69.52
2023-01-17T17:17:19.878Z,69.64
2023-01-17T17:19:49.439Z,70.81
2023-01-17T17:22:17.557Z,70.37
2023-01-17T17:24:46.372Z,70.63
2023-01-17T17:27:20.967Z,69.76
2023-01-17T17:29:49.403Z,68.25
2023-01-17T17:32:18.006Z,69.49
2023-01-17T17:34:56.313Z,69.19
2023-01-17T17:37:47.530Z,70.06
2023-01-17T17:40:17.670Z,71.76
2023-01-17T17:42:55.287Z,70.74
2023-01-17T17:45:23.496Z,71.66
2023-01-17T17:47:52.363Z,70.63
2023-01-17T17:50:20.530Z,70.90
2023-01-17T17:52:54.708Z,71.64
2023-01-17T17:55:22.918Z,71.81
2023-01-17T17:57:55.143Z,71.38
2023-01-17T18:00:25.607Z,71.79
2023-01-17T18:02:54.153Z,72.54
2023-01-17T18:05:24.673Z,71.46
2023-01-17T18:07:53.344Z,72.00
2023-01-17T18:10:22.134Z,71.69
2023-01-17T18:12:51.472Z,71.05
2023-01-17T18:15:24.633Z,72.54
2023-01-17T18:17:55.727Z,70.83
2023-01-17T18:20:25.047Z,72.23
2023-01-17T18:22:53.710Z,72.48
2023-01-17T18:25:21.723Z,72.22
2023-01-17T18:27:49.596Z,72.54
2023-01-17T18:30:21.260Z,73.05
2023-01-17T18:32:51.697Z,73.33
2023-01-17T18:35:22.351Z,71.83
2023-01-17T18:37:51.095Z,71.40
2023-01-17T18:40:19.479Z,71.78
2023-01-17T18:42:49.802Z,71.88
2023-01-17T18:45:18.312Z,71.58
2023-01-17T18:47:48.223Z,72.29
2023-01-17T18:50:18.282Z,70.49
2023-01-17T18:52:49.393Z,70.25
2023-01-17T18:55:18.368Z,70.38
2023-01-17T18:57:47.244Z,70.33
2023-01-17T19:00:16.319Z,69.65
2023-01-17T19:02:49.103Z,69.52
2023-01-17T19:05:21.753Z,70.57
2023-01-17T19:07:50.908Z,69.55
2023-01-17T19:10:20.427Z,70.58
2023-01-17T19:12:51.101Z,69.21
2023-01-17T19:15:19.141Z,69.32
2023-01-17T19:17:48.031Z,69.26
2023-01-17T19:20:27.017Z,69.17
2023-01-17T19:22:57.283Z,68.71
2023-01-17T19:25:26.038Z,69.38
2023-01-17T19:27:54.709Z,70.61
2023-01-17T19:30:23.843Z,70.05
2023-01-17T19:32:56.047Z,71.03
2023-01-17T19:35:25.942Z,70.71
2023-01-17T19:37:55.731Z,70.83
2023-01-17T19:40:24.265Z,70.02
2023-01-17T19:42:52.815Z,70.26
2023-01-17T19:45:20.740Z,70.87
2023-01-17T19:47:49.323Z,72.15
2023-01-17T19:50:22.544Z,72.29
2023-01-17T19:52:59.553Z,71.88
2023-01-17T19:55:28.136Z,72.68
2023-01-17T19:58:06.176Z,73.64
2023-01-17T20:00:45.983Z,73.30
2023-01-17T20:03:15.360Z,73.52
2023-01-17T20:05:44.950Z,72.38
2023-01-17T20:08:16.261Z,72.47
2023-01-17T20:10:49.381Z,73.49
2023-01-17T20:13:18.707Z,74.27
2023-01-17T20:15:48.915Z,74.00
2023-01-17T20:18:17.622Z,74.00
2023-01-17T20:20:57.036Z,73.87
2023-01-17T20:23:35.651Z,74.03
2023-01-17T20:26:07.859Z,74.03
2023-01-17T20:28:52.225Z,75.62
2023-01-17T20:31:22.955Z,74.26
2023-01-17T20:33:52.273Z,73.79
2023-01-17T20:36:22.203Z,73.51
2023-01-17T20:38:53.195Z,73.62
2023-01-17T20:41:23.085Z,74.10
2023-01-17T20:43:53.549Z,74.21
2023-01-17T20:46:23.753Z,73.45
2023-01-17T20:48:55.946Z,74.60
2023-01-17T20:51:26.106Z,73.26
2023-01-17T20:53:57.503Z,73.40
2023-01-17T20:56:26.826Z,72.89
2023-01-17T20:58:56.038Z,72.51
2023-01-17T21:01:24.761Z,74.80
2023-01-17T21:03:54.171Z,74.75
2023-01-17T21:06:25.992Z,73.87
2023-01-17T21:08:56.209Z,74.39
2023-01-17T21:11:27.508Z,73.88
2023-01-17T21:13:57.602Z,72.65
2023-01-17T21:16:29.427Z,73.28
2023-01-17T21:18:57.216Z,72.47
2023-01-17T21:21:28.881Z,71.64
2023-01-17T21:24:00.261Z,71.75
2023-01-17T21:26:29.842Z,71.22
2023-01-17T21:29:01.892Z,71.78
2023-01-17T21:31:34.798Z,71.00
2023-01-17T21:34:05.333Z,72.20
2023-01-17T21:36:36.249Z,71.80
2023-01-17T21:39:09.143Z,72.05
2023-01-17T21:41:39.385Z,72.49
2023-01-17T21:44:10.070Z,71.68
2023-01-17T21:46:39.591Z,71.84
2023-01-17T21:49:12.081Z,72.04
2023-01-17T21:51:57.921Z,73.04
2023-01-17T21:54:47.425Z,73.25
2023-01-17T21:57:37.158Z,73.19
2023-01-17T22:00:14.336Z,72.53
2023-01-17T22:02:45.261Z,73.12
2023-01-17T22:05:13.587Z,72.76
2023-01-17T22:08:02.729Z,73.66
2023-01-17T22:10:32.874Z,73.58
2023-01-17T22:13:02.797Z,73.81
2023-01-17T22:15:34.901Z,73.65
2023-01-17T22:18:04.665Z,74.17
2023-01-17T22:20:34.371Z,74.08
2023-01-17T22:23:02.255Z,73.78
2023-01-17T22:25:32.152Z,73.76
2023-01-17T22:28:01.244Z,74.31
2023-01-17T22:30:30.883Z,74.96
2023-01-17T22:33:01.428Z,74.56
2023-01-17T22:35:33.847Z,73.80
2023-01-17T22:38:06.026Z,73.58
2023-01-17T22:40:38.222Z,74.01
2023-01-17T22:43:07.563Z,73.91
2023-01-17T22:45:35.994Z,74.07
2023-01-17T22:48:06.021Z,73.66
2023-01-17T22:50:34.249Z,74.21
2023-01-17T22:53:04.263Z,73.73
2023-01-17T22:55:35.565Z,73.54
2023-01-17T22:58:04.851Z,74.37
2023-01-17T23:00:34.706Z,74.24
2023-01-17T23:03:02.648Z,75.44
2023-01-17T23:05:31.221Z,74.65
2023-01-17T23:08:02.185Z,74.61
2023-01-17T23:10:47.508Z,75.36
2023-01-17T23:13:17.728Z,74.85
2023-01-17T23:16:17.532Z,75.65
2023-01-17T23:19:03.103Z,76.05
2023-01-17T23:21:51.343Z,75.25
2023-01-17T23:24:20.329Z,76.10
2023-01-17T23:27:04.937Z,76.19
2023-01-17T23:29:36.985Z,76.36
2023-01-17T23:32:06.676Z,75.40
2023-01-17T23:34:40.316Z,76.28
2023-01-17T23:37:08.377Z,76.23
2023-01-17T23:39:38.663Z,75.81
2023-01-17T23:42:25.445Z,76.15
2023-01-17T23:44:55.743Z,76.10
2023-01-17T23:47:23.780Z,76.24
2023-01-17T23:49:52.977Z,76.31
2023-01-17T23:52:22.343Z,75.35
2023-01-17T23:54:53.234Z,76.09
2023-01-17T23:57:29.854Z,74.91
2023-01-17T23:59:59.341Z,75.78
